createdAt,value
2023-05-20T00:00:08.428Z,12.0
2023-05-20T00:05:08.877Z,12.0
2023-05-20T00:10:07.961Z,11.8
2023-05-20T00:15:07.945Z,11.8
2023-05-20T00:20:07.962Z,11.8
2023-05-20T00:25:07.939Z,11.8
2023-05-20T00:30:08.981Z,11.8
2023-05-20T00:35:07.978Z,11.8
2023-05-20T00:40:07.988Z,12.0
2023-05-20T00:45:07.995Z,12.0
2023-05-20T00:50:07.988Z,12.0
2023-05-20T00:55:08.041Z,12.0
2023-05-20T01:00:08.081Z,11.6
2023-05-20T01:05:08.186Z,11.6
2023-05-20T01:10:08.201Z,11.6
2023-05-20T01:15:08.144Z,11.6
2023-05-20T01:20:08.214Z,11.3
2023-05-20T01:25:08.227Z,11.3
2023-05-20T01:30:08.259Z,11.3
2023-05-20T01:35:08.282Z,11.3
2023-05-20T01:40:08.293Z,11.3
2023-05-20T01:45:08.306Z,11.3
2023-05-20T01:50:08.321Z,11.1
2023-05-20T01:55:08.335Z,11.1
2023-05-20T02:00:08.328Z,11.0
2023-05-20T02:05:08.339Z,11.0
2023-05-20T02:10:08.364Z,10.8
2023-05-20T02:15:08.400Z,10.8
2023-05-20T02:20:08.432Z,10.8
2023-05-20T02:25:08.473Z,10.8
2023-05-20T02:30:08.474Z,10.8
2023-05-20T02:35:08.486Z,10.8
2023-05-20T02:40:08.472Z,10.6
2023-05-20T02:45:08.463Z,10.6
2023-05-20T02:50:08.423Z,10.8
2023-05-20T02:55:08.521Z,10.8
2023-05-20T03:00:08.539Z,10.6
2023-05-20T03:05:08.518Z,10.6
2023-05-20T03:10:08.565Z,10.8
2023-05-20T03:15:08.560Z,10.6
2023-05-20T03:20:08.531Z,10.6
2023-05-20T03:25:08.498Z,10.6
2023-05-20T03:30:08.540Z,10.6
2023-05-20T03:35:08.551Z,10.6
2023-05-20T03:40:08.536Z,10.5
2023-05-20T03:45:08.585Z,10.5
2023-05-20T03:50:08.581Z,10.3
2023-05-20T03:55:08.592Z,10.3
2023-05-20T04:00:08.594Z,10.5
2023-05-20T04:05:02.831Z,10.5
2023-05-20T04:10:02.958Z,10.5
2023-05-20T04:15:01.994Z,10.5
2023-05-20T04:20:02.140Z,10.6
2023-05-20T04:25:02.158Z,10.6
2023-05-20T04:30:02.363Z,10.5
2023-05-20T04:35:02.462Z,10.5
2023-05-20T04:40:02.722Z,10.8
2023-05-20T04:45:03.114Z,10.8
2023-05-20T04:50:02.156Z,10.8
2023-05-20T04:55:02.326Z,10.8
2023-05-20T05:00:02.841Z,10.8
2023-05-20T05:05:03.004Z,11.0
2023-05-20T05:10:02.350Z,11.0
2023-05-20T05:15:02.857Z,11.3
2023-05-20T05:20:02.993Z,11.3
2023-05-20T05:25:02.287Z,11.3
2023-05-20T05:30:02.434Z,11.6
2023-05-20T05:35:02.636Z,11.6
2023-05-20T05:40:02.735Z,12.0
2023-05-20T05:45:02.823Z,12.0
2023-05-20T05:50:02.899Z,12.0
2023-05-20T05:55:03.049Z,12.3
2023-05-20T06:00:02.186Z,12.6
2023-05-20T06:05:02.447Z,12.6
2023-05-20T06:10:02.611Z,12.8
2023-05-20T06:15:02.855Z,12.8
2023-05-20T06:20:02.989Z,13.1
2023-05-20T06:25:02.268Z,13.1
2023-05-20T06:30:02.436Z,13.5
2023-05-20T06:35:02.897Z,13.5
2023-05-20T06:40:03.113Z,13.8
2023-05-20T06:45:02.279Z,13.8
2023-05-20T06:50:02.749Z,14.1
2023-05-20T06:55:02.873Z,14.1
2023-05-20T07:00:03.146Z,14.5
2023-05-20T07:05:02.353Z,14.5
2023-05-20T07:10:02.805Z,15.0
2023-05-20T07:15:03.021Z,15.0
2023-05-20T07:20:02.996Z,15.5
2023-05-20T07:25:02.053Z,15.5
2023-05-20T07:30:02.240Z,15.8
2023-05-20T07:35:02.556Z,15.8
2023-05-20T07:40:02.661Z,16.7
2023-05-20T07:45:02.866Z,16.7
2023-05-20T07:50:02.968Z,17.1
2023-05-20T07:55:02.290Z,17.1
2023-05-20T08:00:02.558Z,18.2
2023-05-20T08:05:02.665Z,18.2
2023-05-20T08:10:02.822Z,19.1
2023-05-20T08:15:03.116Z,19.0
2023-05-20T08:20:02.267Z,19.0
2023-05-20T08:25:02.585Z,19.3
2023-05-20T08:30:02.747Z,19.3
2023-05-20T08:35:03.174Z,19.7
2023-05-20T08:40:02.326Z,19.7
2023-05-20T08:45:02.468Z,20.3
2023-05-20T08:50:02.739Z,20.3
2023-05-20T08:55:02.877Z,20.3
2023-05-20T09:00:03.134Z,20.3
2023-05-20T09:05:02.393Z,20.7
2023-05-20T09:10:02.750Z,20.7
2023-05-20T09:15:02.825Z,20.8
2023-05-20T09:20:03.128Z,20.8
2023-05-20T09:25:02.273Z,21.5
2023-05-20T09:30:02.361Z,21.5
2023-05-20T09:35:02.617Z,21.6
2023-05-20T09:40:02.940Z,21.6
2023-05-20T09:45:02.121Z,22.0
2023-05-20T09:50:02.430Z,20.2
2023-05-20T09:55:02.553Z,20.2
2023-05-20T10:00:03.088Z,19.1
2023-05-20T10:05:02.191Z,19.1
2023-05-20T10:10:02.438Z,21.2
2023-05-20T10:15:12.608Z,20.7
2023-05-20T10:20:05.259Z,20.7
2023-05-20T10:25:02.829Z,22.0
2023-05-20T10:30:03.542Z,20.0
2023-05-20T10:35:02.890Z,19.7
2023-05-20T10:40:03.052Z,19.7
2023-05-20T10:45:02.303Z,21.7
2023-05-20T10:50:02.770Z,21.7
2023-05-20T10:55:02.892Z,20.6
2023-05-20T11:00:02.272Z,20.6
2023-05-20T11:05:02.448Z,19.7
2023-05-20T11:10:02.606Z,19.7
2023-05-20T11:15:02.693Z,20.7
2023-05-20T11:20:02.813Z,20.7
2023-05-20T11:25:03.011Z,21.2
2023-05-20T11:30:02.074Z,21.2
2023-05-20T11:35:02.296Z,21.2
2023-05-20T11:40:02.551Z,21.7
2023-05-20T11:45:02.686Z,21.7
2023-05-20T11:50:03.099Z,22.2
2023-05-20T11:55:02.229Z,22.2
2023-05-20T12:00:02.515Z,21.5
2023-05-20T12:05:03.025Z,21.5
2023-05-20T12:10:02.344Z,21.2
2023-05-20T12:15:04.960Z,21.2
2023-05-20T12:20:02.089Z,21.8
2023-05-20T12:25:02.447Z,21.8
2023-05-20T12:30:02.777Z,21.8
2023-05-20T12:35:03.090Z,21.8
2023-05-20T12:40:02.242Z,22.6
2023-05-20T12:45:02.432Z,22.6
2023-05-20T12:50:02.641Z,22.5
2023-05-20T12:55:03.175Z,22.5
2023-05-20T13:00:02.495Z,23.2
2023-05-20T13:05:02.614Z,23.2
2023-05-20T13:10:02.860Z,23.2
2023-05-20T13:15:03.080Z,23.2
2023-05-20T13:20:02.243Z,24.6
2023-05-20T13:25:02.344Z,22.6
2023-05-20T13:30:02.539Z,22.2
2023-05-20T13:35:02.831Z,22.2
2023-05-20T13:40:02.912Z,23.1
2023-05-20T13:45:03.022Z,23.1
2023-05-20T13:50:03.361Z,23.1
2023-05-20T13:55:02.512Z,23.1
2023-05-20T14:00:02.824Z,23.0
2023-05-20T14:05:02.842Z,23.0
2023-05-20T14:10:02.956Z,24.8
2023-05-20T14:15:02.035Z,24.6
2023-05-20T14:20:02.289Z,22.0
2023-05-20T14:25:02.558Z,22.0
2023-05-20T14:30:02.692Z,25.6
2023-05-20T14:35:02.740Z,23.6
2023-05-20T14:40:03.031Z,22.7
2023-05-20T14:45:02.180Z,22.1
2023-05-20T14:50:02.410Z,24.2
2023-05-20T14:55:02.838Z,23.6
2023-05-20T15:00:03.150Z,25.2
2023-05-20T15:05:02.343Z,25.1
2023-05-20T15:10:02.573Z,25.1
2023-05-20T15:15:02.659Z,23.7
2023-05-20T15:20:03.153Z,23.7
2023-05-20T15:25:02.472Z,23.3
2023-05-20T15:30:02.656Z,23.3
2023-05-20T15:35:03.003Z,23.2
2023-05-20T15:40:02.237Z,23.2
2023-05-20T15:45:02.833Z,23.1
2023-05-20T15:50:03.037Z,23.1
2023-05-20T15:55:02.140Z,23.6
2023-05-20T16:00:02.608Z,24.3
2023-05-20T16:05:02.776Z,24.3
2023-05-20T16:10:03.275Z,23.6
2023-05-20T16:15:02.458Z,23.6
2023-05-20T16:20:02.828Z,23.6
2023-05-20T16:25:02.905Z,23.6
2023-05-20T16:30:03.069Z,22.3
2023-05-20T16:35:02.199Z,22.3
2023-05-20T16:40:02.456Z,23.2
2023-05-20T16:45:02.670Z,23.2
2023-05-20T16:50:02.784Z,22.6
2023-05-20T16:55:03.035Z,22.6
2023-05-20T17:00:02.230Z,21.3
2023-05-20T17:05:02.453Z,21.0
2023-05-20T17:10:02.965Z,21.0
2023-05-20T17:15:02.109Z,20.7
2023-05-20T17:20:02.259Z,20.7
2023-05-20T17:25:02.543Z,20.2
2023-05-20T17:30:02.855Z,20.2
2023-05-20T17:35:03.149Z,21.5
2023-05-20T17:40:02.369Z,21.5
2023-05-20T17:45:02.549Z,19.7
2023-05-20T17:50:02.724Z,19.7
2023-05-20T17:55:02.798Z,19.2
2023-05-20T18:00:03.060Z,19.0
2023-05-20T18:05:02.211Z,19.0
2023-05-20T18:10:02.260Z,18.7
2023-05-20T18:15:02.750Z,18.7
2023-05-20T18:20:02.862Z,18.5
2023-05-20T18:25:03.125Z,18.5
2023-05-20T18:30:02.273Z,18.5
2023-05-20T18:35:02.421Z,18.5
2023-05-20T18:40:02.741Z,18.2
2023-05-20T18:45:02.876Z,18.2
2023-05-20T18:50:03.317Z,17.8
2023-05-20T18:55:02.708Z,17.8
2023-05-20T19:00:03.196Z,17.7
2023-05-20T19:05:02.313Z,17.7
2023-05-20T19:10:02.567Z,17.7
2023-05-20T19:15:03.056Z,17.7
2023-05-20T19:20:02.488Z,17.3
2023-05-20T19:25:02.711Z,17.3
2023-05-20T19:30:02.872Z,17.2
2023-05-20T19:35:02.244Z,17.2
2023-05-20T19:40:02.764Z,17.1
2023-05-20T19:45:02.913Z,17.1
2023-05-20T19:50:03.104Z,16.7
2023-05-20T19:55:02.249Z,16.7
2023-05-20T20:00:02.485Z,16.7
2023-05-20T20:05:02.772Z,16.7
2023-05-20T20:10:03.007Z,16.7
2023-05-20T20:15:02.063Z,16.7
2023-05-20T20:20:02.296Z,16.7
2023-05-20T20:25:02.579Z,16.7
2023-05-20T20:30:02.787Z,16.6
2023-05-20T20:35:03.045Z,16.6
2023-05-20T20:40:02.507Z,16.2
2023-05-20T20:45:02.687Z,16.2
2023-05-20T20:50:02.871Z,16.0
2023-05-20T20:55:03.056Z,16.0
2023-05-20T21:00:02.159Z,15.8
2023-05-20T21:05:02.325Z,15.8
2023-05-20T21:10:02.579Z,15.6
2023-05-20T21:15:02.792Z,15.6
2023-05-20T21:20:03.121Z,15.5
2023-05-20T21:25:02.598Z,15.5
2023-05-20T21:30:02.686Z,15.1
2023-05-20T21:35:02.787Z,15.1
2023-05-20T21:40:03.218Z,15.1
2023-05-20T21:45:03.043Z,15.1
2023-05-20T21:50:02.118Z,15.1
2023-05-20T21:55:02.327Z,15.1
2023-05-20T22:00:02.511Z,15.3
2023-05-20T22:05:15.449Z,15.3
2023-05-20T22:10:08.458Z,15.5
2023-05-20T22:15:08.458Z,15.5
2023-05-20T22:20:08.458Z,15.5
2023-05-20T22:25:08.449Z,15.5
2023-05-20T22:30:08.457Z,15.6
2023-05-20T22:35:08.452Z,15.6
2023-05-20T22:40:08.462Z,15.3
2023-05-20T22:45:08.439Z,15.3
2023-05-20T22:50:08.415Z,15.3
2023-05-20T22:55:08.392Z,15.3
2023-05-20T23:01:15.697Z,15.1
2023-05-20T23:05:08.674Z,15.1
2023-05-20T23:10:08.438Z,15.3
2023-05-20T23:15:08.383Z,15.3
2023-05-20T23:20:08.361Z,15.5
2023-05-20T23:25:08.448Z,15.5
2023-05-20T23:30:08.517Z,15.3
2023-05-20T23:35:08.536Z,15.3
2023-05-20T23:40:08.530Z,15.5
2023-05-20T23:45:08.527Z,15.5
2023-05-20T23:50:08.542Z,15.5
2023-05-20T23:55:08.552Z,15.5
